Time;durP1;ratioP1;P1;durP2;ratioP2;P2;SDS_P1;SDS_P2;PMS_P1;PMS_P2;Temp;Humidity;BMP_temperature;BMP_pressure;BME280_temperature;BME280_humidity;BME280_pressure;Samples;Min_cycle;Max_cycle;Signal;HPM_P1;HPM_P2
2022/10/04 00:02:11;;;;;;;;;;;16.70;99.90;;;;;;5075581;28;20021;-78
2022/10/04 00:05:00;;;;;;;;;;;16.70;99.90;;;;;;5075650;28;19908;-79
2022/10/04 00:07:27;;;;;;;;;;;16.70;99.90;;;;;;5075444;28;19908;-79
2022/10/04 00:09:56;;;;;;;;;;;16.50;99.90;;;;;;5075390;28;19908;-78
2022/10/04 00:12:44;;;;;;;;;;;16.40;99.90;;;;;;5075640;28;19923;-77
2022/10/04 00:15:18;;;;;;;;;;;16.20;99.90;;;;;;5075286;28;19909;-74
2022/10/04 00:17:45;;;;;;;;;;;16.00;99.90;;;;;;5074939;28;19908;-78
2022/10/04 00:20:29;;;;;;;;;;;16.20;99.90;;;;;;5075416;28;19913;-79
2022/10/04 00:23:13;;;;;;;;;;;16.30;99.90;;;;;;5073902;28;20011;-76
2022/10/04 00:25:38;;;;;;;;;;;16.40;99.90;;;;;;5075349;28;19967;-77
2022/10/04 00:28:19;;;;;;;;;;;16.50;99.90;;;;;;5074828;28;19931;-77
2022/10/04 00:31:05;;;;;;;;;;;16.40;99.90;;;;;;5075092;28;19912;-76
2022/10/04 00:33:34;;;;;;;;;;;16.30;99.90;;;;;;5073392;28;19918;-77
2022/10/04 00:36:20;;;;;;;;;;;16.40;99.90;;;;;;5075175;28;20270;-80
2022/10/04 00:39:00;;;;;;;;;;;16.40;99.90;;;;;;5074420;28;20404;-76
2022/10/04 00:41:26;;;;;;;;;;;16.40;99.90;;;;;;5074885;28;19908;-78
2022/10/04 00:43:52;;;;;;;;;;;16.40;99.90;;;;;;5075027;28;19915;-76
2022/10/04 00:46:21;;;;;;;;;;;16.40;99.90;;;;;;5074605;28;20273;-78
2022/10/04 00:48:52;;;;;;;;;;;16.20;99.90;;;;;;5074123;28;19921;-78
2022/10/04 00:51:28;;;;;;;;;;;16.10;99.90;;;;;;5075522;28;19913;-77
2022/10/04 00:54:00;;;;;;;;;;;16.10;99.90;;;;;;5075203;28;19995;-77
2022/10/04 00:56:34;;;;;;;;;;;16.00;99.90;;;;;;5074585;28;19915;-76
2022/10/04 00:59:18;;;;;;;;;;;15.70;99.90;;;;;;5074130;28;20423;-78
2022/10/04 01:01:46;;;;;;;;;;;15.70;99.90;;;;;;5074046;28;19909;-80
2022/10/04 01:04:23;;;;;;;;;;;15.80;99.90;;;;;;5074623;28;19912;-80
2022/10/04 01:06:49;;;;;;;;;;;15.80;99.90;;;;;;5074527;28;19908;-76
2022/10/04 01:09:15;;;;;;;;;;;15.80;99.90;;;;;;5073924;28;19961;-79
2022/10/04 01:11:43;;;;;;;;;;;15.70;99.90;;;;;;5073983;28;19916;-79
2022/10/04 01:14:19;;;;;;;;;;;15.70;99.90;;;;;;5074341;28;20050;-78
2022/10/04 01:16:45;;;;;;;;;;;15.60;99.90;;;;;;5074237;28;20330;-79
2022/10/04 01:19:27;;;;;;;;;;;15.40;99.90;;;;;;5073783;28;20003;-78
2022/10/04 01:22:07;;;;;;;;;;;15.30;99.90;;;;;;5074095;28;20368;-79
2022/10/04 01:24:40;;;;;;;;;;;15.00;99.90;;;;;;5074114;28;19915;-77
2022/10/04 01:27:26;;;;;;;;;;;15.10;99.90;;;;;;5074073;28;20369;-79
2022/10/04 01:29:51;;;;;;;;;;;15.20;99.90;;;;;;5073849;28;19908;-77
2022/10/04 01:32:17;;;;;;;;;;;15.20;99.90;;;;;;5074077;28;20419;-77
2022/10/04 01:34:43;;;;;;;;;;;15.10;99.90;;;;;;5073586;28;20042;-79
2022/10/04 01:37:09;;;;;;;;;;;15.10;99.90;;;;;;5073927;28;19908;-77
2022/10/04 01:39:53;;;;;;;;;;;14.80;99.90;;;;;;5073294;28;19916;-78
2022/10/04 01:42:26;;;;;;;;;;;14.70;99.90;;;;;;5073919;28;19908;-78
2022/10/04 01:45:04;;;;;;;;;;;14.90;99.90;;;;;;5073595;28;19909;-77
2022/10/04 01:47:52;;;;;;;;;;;15.00;99.90;;;;;;5072945;28;19920;-80
2022/10/04 01:50:20;;;;;;;;;;;15.10;99.90;;;;;;5073786;28;20029;-79
2022/10/04 01:52:48;;;;;;;;;;;15.00;99.90;;;;;;5074099;28;19923;-77
2022/10/04 01:55:16;;;;;;;;;;;14.90;99.90;;;;;;5073577;28;19914;-79
2022/10/04 01:57:45;;;;;;;;;;;14.90;99.90;;;;;;5073204;28;19916;-78
2022/10/04 02:00:12;;;;;;;;;;;14.80;99.90;;;;;;5073609;28;19916;-78
2022/10/04 02:02:44;;;;;;;;;;;14.80;99.90;;;;;;5073480;28;19999;-77
2022/10/04 02:05:12;;;;;;;;;;;14.70;99.90;;;;;;5073564;28;20006;-78
2022/10/04 02:07:38;;;;;;;;;;;14.70;99.90;;;;;;5073032;28;19909;-78
2022/10/04 02:10:06;;;;;;;;;;;14.70;99.90;;;;;;5073231;28;19909;-77
2022/10/04 02:12:32;;;;;;;;;;;14.70;99.90;;;;;;5073337;28;19912;-74
2022/10/04 02:15:00;;;;;;;;;;;14.70;99.90;;;;;;5073246;28;19909;-78
2022/10/04 02:17:28;;;;;;;;;;;14.60;99.90;;;;;;5073195;28;19940;-77
2022/10/04 02:19:54;;;;;;;;;;;14.60;99.90;;;;;;5073191;28;19909;-77
2022/10/04 02:22:21;;;;;;;;;;;14.50;99.90;;;;;;5073264;28;20022;-77
2022/10/04 02:24:48;;;;;;;;;;;14.50;99.90;;;;;;5073185;28;19955;-79
2022/10/04 02:27:14;;;;;;;;;;;14.40;99.90;;;;;;5071978;28;19948;-77
2022/10/04 02:29:40;;;;;;;;;;;14.20;99.90;;;;;;5072719;28;20261;-77
2022/10/04 02:34:51;;;;;;;;;;;14.30;99.90;;;;;;5073170;28;20029;-78
2022/10/04 02:37:17;;;;;;;;;;;14.30;99.90;;;;;;5073163;28;19909;-79
2022/10/04 02:39:46;;;;;;;;;;;14.20;99.90;;;;;;5072670;28;19923;-78
2022/10/04 02:42:15;;;;;;;;;;;14.20;99.90;;;;;;5073093;28;19909;-76
2022/10/04 02:44:59;;;;;;;;;;;14.30;99.90;;;;;;5072976;28;20391;-78
2022/10/04 02:47:28;;;;;;;;;;;14.30;99.90;;;;;;5075435;28;19916;-77
2022/10/04 02:49:57;;;;;;;;;;;14.40;99.90;;;;;;5076512;28;20369;-76
2022/10/04 02:52:26;;;;;;;;;;;14.50;99.90;;;;;;5077962;28;19920;-78
2022/10/04 02:55:01;;;;;;;;;;;14.60;99.90;;;;;;5077051;28;19919;-78
2022/10/04 02:57:28;;;;;;;;;;;14.60;99.90;;;;;;5075492;28;19909;-77
2022/10/04 03:00:01;;;;;;;;;;;14.60;99.90;;;;;;5076357;28;19916;-79
2022/10/04 03:02:28;;;;;;;;;;;14.60;99.90;;;;;;5077087;28;19961;-76
2022/10/04 03:04:55;;;;;;;;;;;14.70;99.90;;;;;;5076796;28;19915;-76
2022/10/04 03:07:21;;;;;;;;;;;14.90;99.90;;;;;;5076808;28;19913;-79
2022/10/04 03:09:47;;;;;;;;;;;14.90;99.90;;;;;;5076217;28;20399;-79
2022/10/04 03:12:13;;;;;;;;;;;15.00;99.90;;;;;;5076578;28;19912;-77
2022/10/04 03:14:39;;;;;;;;;;;15.10;99.90;;;;;;5076684;28;19958;-78
2022/10/04 03:17:04;;;;;;;;;;;14.90;99.90;;;;;;5076227;28;19947;-78
2022/10/04 03:19:31;;;;;;;;;;;14.70;99.90;;;;;;5076099;28;19908;-77
2022/10/04 03:21:59;;;;;;;;;;;14.80;99.90;;;;;;5076390;28;20304;-77
2022/10/04 03:24:30;;;;;;;;;;;14.90;99.90;;;;;;5076497;28;19915;-80
2022/10/04 03:26:57;;;;;;;;;;;14.90;99.90;;;;;;5076312;28;20360;-78
2022/10/04 03:29:23;;;;;;;;;;;14.70;99.90;;;;;;5075919;28;20270;-74
2022/10/04 03:31:50;;;;;;;;;;;14.40;99.90;;;;;;5076230;28;19913;-77
2022/10/04 03:34:21;;;;;;;;;;;14.10;99.90;;;;;;5076157;28;19940;-76
2022/10/04 03:36:48;;;;;;;;;;;14.10;99.90;;;;;;5076170;28;20262;-78
2022/10/04 03:39:33;;;;;;;;;;;14.30;99.90;;;;;;5075770;28;19969;-78
2022/10/04 03:42:04;;;;;;;;;;;14.60;99.90;;;;;;5076239;28;19908;-79
2022/10/04 03:44:30;;;;;;;;;;;14.30;99.90;;;;;;5076017;28;20356;-79
2022/10/04 03:46:56;;;;;;;;;;;13.80;99.90;;;;;;5075971;28;19953;-76
2022/10/04 03:49:29;;;;;;;;;;;13.90;99.90;;;;;;5075212;28;19921;-79
2022/10/04 03:51:54;;;;;;;;;;;14.10;99.90;;;;;;5076451;28;20368;-76
2022/10/04 03:54:22;;;;;;;;;;;13.80;99.90;;;;;;5075943;28;19908;-77
2022/10/04 03:56:49;;;;;;;;;;;13.70;99.90;;;;;;5075727;28;20381;-77
2022/10/04 03:59:16;;;;;;;;;;;13.60;99.90;;;;;;5075313;28;20380;-77
2022/10/04 04:01:56;;;;;;;;;;;13.60;99.90;;;;;;5075752;28;19950;-78
2022/10/04 04:04:25;;;;;;;;;;;13.60;99.90;;;;;;5074181;28;20329;-76
2022/10/04 04:06:56;;;;;;;;;;;13.80;99.90;;;;;;5075707;28;19955;-75
2022/10/04 04:09:32;;;;;;;;;;;14.10;99.90;;;;;;5073807;28;20288;-79
2022/10/04 04:12:00;;;;;;;;;;;13.90;99.90;;;;;;5075285;28;20387;-75
2022/10/04 04:14:26;;;;;;;;;;;14.10;99.90;;;;;;5074209;28;19914;-77
2022/10/04 04:16:53;;;;;;;;;;;14.30;99.90;;;;;;5075564;28;19967;-79
2022/10/04 04:19:21;;;;;;;;;;;14.20;99.90;;;;;;5074970;28;19916;-76
2022/10/04 04:21:47;;;;;;;;;;;13.90;99.90;;;;;;5075533;28;19957;-78
2022/10/04 04:24:23;;;;;;;;;;;13.70;99.90;;;;;;5075360;28;19908;-75
2022/10/04 04:26:52;;;;;;;;;;;13.80;99.90;;;;;;5075383;28;19909;-77
2022/10/04 04:29:22;;;;;;;;;;;13.90;99.90;;;;;;5073583;28;20406;-76
2022/10/04 04:31:53;;;;;;;;;;;13.90;99.90;;;;;;5073915;28;19919;-80
2022/10/04 04:34:24;;;;;;;;;;;13.50;99.90;;;;;;5074993;28;19909;-79
2022/10/04 04:36:51;;;;;;;;;;;13.20;99.90;;;;;;5075180;28;19974;-78
2022/10/04 04:42:01;;;;;;;;;;;13.10;99.90;;;;;;5075090;28;20472;-78
2022/10/04 04:44:27;;;;;;;;;;;13.30;99.90;;;;;;5074870;28;19914;-75
2022/10/04 04:46:59;;;;;;;;;;;13.30;99.90;;;;;;5074721;28;19915;-76
2022/10/04 04:49:28;;;;;;;;;;;13.50;99.90;;;;;;5074181;28;20353;-76
2022/10/04 04:51:54;;;;;;;;;;;13.10;99.90;;;;;;5075316;28;19913;-75
2022/10/04 04:54:22;;;;;;;;;;;12.60;99.90;;;;;;5074690;28;19951;-77
2022/10/04 04:56:50;;;;;;;;;;;12.40;99.90;;;;;;5074680;28;19916;-75
2022/10/04 04:59:16;;;;;;;;;;;12.30;99.90;;;;;;5074259;28;19909;-76
2022/10/04 05:01:44;;;;;;;;;;;12.40;99.90;;;;;;5074555;28;19966;-76
2022/10/04 05:04:11;;;;;;;;;;;12.50;99.90;;;;;;5074583;28;19944;-80
2022/10/04 05:06:38;;;;;;;;;;;12.70;99.90;;;;;;5074488;28;19909;-76
2022/10/04 05:09:04;;;;;;;;;;;13.00;99.90;;;;;;5073647;28;19913;-77
2022/10/04 05:11:32;;;;;;;;;;;13.10;99.90;;;;;;5072712;28;20011;-75
2022/10/04 05:14:00;;;;;;;;;;;13.10;99.90;;;;;;5074604;28;19999;-77
2022/10/04 05:16:35;;;;;;;;;;;13.10;99.90;;;;;;5074312;28;20330;-78
2022/10/04 05:19:02;;;;;;;;;;;13.10;99.90;;;;;;5074079;28;19909;-76
2022/10/04 05:21:29;;;;;;;;;;;13.30;99.90;;;;;;5074207;28;19909;-79
2022/10/04 05:23:56;;;;;;;;;;;13.50;99.90;;;;;;5073877;28;19915;-77
2022/10/04 05:26:29;;;;;;;;;;;13.60;99.90;;;;;;5074152;28;19913;-77
2022/10/04 05:28:58;;;;;;;;;;;13.70;99.90;;;;;;5073785;28;20303;-76
2022/10/04 05:31:33;;;;;;;;;;;13.80;99.90;;;;;;5072648;28;19920;-79
2022/10/04 05:33:58;;;;;;;;;;;13.80;99.90;;;;;;5074039;28;19957;-79
2022/10/04 05:36:30;;;;;;;;;;;13.90;99.90;;;;;;5074060;28;20346;-79
2022/10/04 05:39:01;;;;;;;;;;;14.00;99.90;;;;;;5073634;28;19908;-77
2022/10/04 05:41:33;;;;;;;;;;;14.00;99.90;;;;;;5073920;28;19908;-76
2022/10/04 05:43:58;;;;;;;;;;;13.70;99.90;;;;;;5073771;28;20266;-76
2022/10/04 05:46:28;;;;;;;;;;;13.60;99.90;;;;;;5073525;28;19919;-75
2022/10/04 05:49:05;;;;;;;;;;;13.20;99.90;;;;;;5073253;28;19931;-77
2022/10/04 05:51:36;;;;;;;;;;;13.50;99.90;;;;;;5072890;28;19912;-75
2022/10/04 05:54:02;;;;;;;;;;;13.70;99.90;;;;;;5073587;28;19917;-76
2022/10/04 05:56:40;;;;;;;;;;;13.80;99.90;;;;;;5073598;28;19915;-76
2022/10/04 05:59:24;;;;;;;;;;;13.90;99.90;;;;;;5073041;28;20442;-77
2022/10/04 06:01:50;;;;;;;;;;;14.00;99.90;;;;;;5073444;28;19919;-77
2022/10/04 06:04:34;;;;;;;;;;;14.10;99.90;;;;;;5073554;28;19908;-75
2022/10/04 06:06:59;;;;;;;;;;;14.10;99.90;;;;;;5073529;28;19908;-77
2022/10/04 06:09:43;;;;;;;;;;;14.10;99.90;;;;;;5073102;28;19908;-77
2022/10/04 06:12:19;;;;;;;;;;;14.20;99.90;;;;;;5073386;28;19912;-75
2022/10/04 06:14:53;;;;;;;;;;;14.20;99.90;;;;;;5073368;28;19962;-76
2022/10/04 06:17:28;;;;;;;;;;;14.30;99.90;;;;;;5073448;28;19909;-77
2022/10/04 06:19:56;;;;;;;;;;;14.40;99.90;;;;;;5072821;28;19908;-79
2022/10/04 06:22:25;;;;;;;;;;;14.30;99.90;;;;;;5072543;28;19936;-75
2022/10/04 06:24:54;;;;;;;;;;;14.20;99.90;;;;;;5071990;28;19913;-77
2022/10/04 06:27:24;;;;;;;;;;;14.30;99.90;;;;;;5073369;28;19915;-76
2022/10/04 06:29:55;;;;;;;;;;;14.20;99.90;;;;;;5072734;28;19908;-77
2022/10/04 06:32:22;;;;;;;;;;;14.30;99.90;;;;;;5073173;28;20015;-78
2022/10/04 06:34:58;;;;;;;;;;;14.30;99.90;;;;;;5073254;28;19992;-75
2022/10/04 06:37:24;;;;;;;;;;;14.40;99.90;;;;;;5073146;28;19995;-78
2022/10/04 06:40:07;;;;;;;;;;;14.30;99.90;;;;;;5072986;28;19916;-75
2022/10/04 06:42:50;;;;;;;;;;;14.20;99.90;;;;;;5073266;28;19955;-77
2022/10/04 06:45:34;;;;;;;;;;;14.20;99.90;;;;;;5071602;28;19908;-76
2022/10/04 06:48:10;;;;;;;;;;;14.30;99.90;;;;;;5072773;28;19943;-78
2022/10/04 06:50:48;;;;;;;;;;;14.30;99.90;;;;;;5072558;28;19966;-77
2022/10/04 06:53:32;;;;;;;;;;;14.30;99.90;;;;;;5073604;28;19909;-76
2022/10/04 06:56:16;;;;;;;;;;;14.50;99.90;;;;;;5072950;28;19948;-75
2022/10/04 06:58:45;;;;;;;;;;;14.60;99.90;;;;;;5072666;28;19908;-76
2022/10/04 07:01:22;;;;;;;;;;;14.60;99.90;;;;;;5072900;28;19915;-78
2022/10/04 07:03:48;;;;;;;;;;;14.40;99.90;;;;;;5073454;28;20426;-78
2022/10/04 07:06:17;;;;;;;;;;;14.40;99.90;;;;;;5072550;28;19908;-75
2022/10/04 07:08:48;;;;;;;;;;;14.50;99.90;;;;;;5071858;28;19915;-78
2022/10/04 07:11:17;;;;;;;;;;;14.70;99.90;;;;;;5073128;28;19912;-78
2022/10/04 07:13:49;;;;;;;;;;;14.80;99.90;;;;;;5073534;28;19908;-79
2022/10/04 07:16:24;;;;;;;;;;;14.70;99.90;;;;;;5071588;28;19915;-77
2022/10/04 07:19:04;;;;;;;;;;;14.60;99.90;;;;;;5072584;28;20360;-77
2022/10/04 07:21:53;;;;;;;;;;;14.60;99.90;;;;;;5072957;28;19912;-78
2022/10/04 07:24:40;;;;;;;;;;;14.60;99.90;;;;;;5073420;28;19909;-79
2022/10/04 07:27:08;;;;;;;;;;;14.60;99.90;;;;;;5071731;28;19908;-76
2022/10/04 07:29:37;;;;;;;;;;;14.50;99.90;;;;;;5072439;28;19908;-77
2022/10/04 07:32:04;;;;;;;;;;;14.70;99.90;;;;;;5073092;28;19916;-78
2022/10/04 07:34:39;;;;;;;;;;;14.80;99.90;;;;;;5076405;28;19909;-77
2022/10/04 07:37:11;;;;;;;;;;;14.90;99.90;;;;;;5076753;28;19915;-79
2022/10/04 07:39:49;;;;;;;;;;;14.90;99.90;;;;;;5076453;28;19953;-79
2022/10/04 07:42:17;;;;;;;;;;;14.90;99.90;;;;;;5075543;28;19909;-79
2022/10/04 07:44:46;;;;;;;;;;;15.00;99.90;;;;;;5076787;28;19915;-78
2022/10/04 07:47:16;;;;;;;;;;;15.10;99.90;;;;;;5076248;28;19912;-77
2022/10/04 07:49:42;;;;;;;;;;;14.90;99.90;;;;;;5076416;28;19912;-78
2022/10/04 07:52:27;;;;;;;;;;;15.00;99.90;;;;;;5076980;28;19919;-77
2022/10/04 07:54:56;;;;;;;;;;;15.10;99.90;;;;;;5076739;28;19961;-79
2022/10/04 07:57:43;;;;;;;;;;;15.40;99.90;;;;;;5076627;28;19916;-78
2022/10/04 08:00:21;;;;;;;;;;;15.50;99.90;;;;;;5065619;28;19908;-78
2022/10/04 08:02:49;;;;;;;;;;;15.90;99.90;;;;;;5075168;28;19916;-77
2022/10/04 08:05:36;;;;;;;;;;;16.00;99.90;;;;;;5076197;28;19908;-78
2022/10/04 08:08:04;;;;;;;;;;;16.40;99.90;;;;;;5076025;28;19958;-77
2022/10/04 08:10:34;;;;;;;;;;;16.90;99.90;;;;;;5074382;28;20368;-75
2022/10/04 08:13:09;;;;;;;;;;;17.30;99.90;;;;;;5076060;28;19916;-78
2022/10/04 08:15:35;;;;;;;;;;;17.10;99.90;;;;;;5076456;28;19915;-77
2022/10/04 08:18:20;;;;;;;;;;;17.30;99.90;;;;;;5076304;28;20284;-77
2022/10/04 08:21:03;;;;;;;;;;;17.00;99.90;;;;;;5075841;28;20254;-76
2022/10/04 08:23:39;;;;;;;;;;;16.90;99.90;;;;;;5075848;28;19908;-79
2022/10/04 08:26:08;;;;;;;;;;;17.00;99.90;;;;;;5074542;28;19950;-78
2022/10/04 08:31:58;;;;;;;;;;;17.50;99.90;;;;;;5075494;28;20331;-80
2022/10/04 08:34:27;;;;;;;;;;;16.60;99.90;;;;;;5074660;28;20372;-77
2022/10/04 08:36:58;;;;;;;;;;;16.70;99.90;;;;;;5074580;28;20323;-78
2022/10/04 08:39:26;;;;;;;;;;;16.80;99.90;;;;;;5075048;28;19959;-76
2022/10/04 08:41:55;;;;;;;;;;;17.00;99.90;;;;;;5075052;28;19995;-79
2022/10/04 08:44:41;;;;;;;;;;;16.80;99.90;;;;;;5073477;28;19952;-79
2022/10/04 08:47:22;;;;;;;;;;;17.10;99.90;;;;;;5074077;28;19916;-78
2022/10/04 08:49:59;;;;;;;;;;;16.80;99.90;;;;;;5074410;28;19974;-77
2022/10/04 08:52:36;;;;;;;;;;;17.00;99.90;;;;;;5074678;28;19912;-77
2022/10/04 08:55:01;;;;;;;;;;;16.90;99.90;;;;;;5074822;28;20028;-78
2022/10/04 08:57:27;;;;;;;;;;;17.30;99.90;;;;;;5074646;28;19951;-79
2022/10/04 08:59:53;;;;;;;;;;;17.40;99.90;;;;;;5074167;28;20291;-79
2022/10/04 09:02:42;;;;;;;;;;;17.60;99.90;;;;;;5074604;28;19908;-76
2022/10/04 09:05:22;;;;;;;;;;;17.80;99.90;;;;;;5062534;28;19909;-77
2022/10/04 09:07:54;;;;;;;;;;;17.90;99.90;;;;;;5074504;28;19915;-77
2022/10/04 09:10:34;;;;;;;;;;;18.00;99.90;;;;;;5073955;28;19913;-78
2022/10/04 09:13:12;;;;;;;;;;;18.00;99.90;;;;;;5074600;28;19908;-77
2022/10/04 09:15:37;;;;;;;;;;;18.30;99.90;;;;;;5074357;28;19908;-76
2022/10/04 09:18:12;;;;;;;;;;;18.40;99.90;;;;;;5074208;28;19913;-77
2022/10/04 09:20:53;;;;;;;;;;;18.20;99.90;;;;;;5073731;28;19991;-75
2022/10/04 09:23:21;;;;;;;;;;;18.20;99.90;;;;;;5072642;28;19909;-77
2022/10/04 09:26:04;;;;;;;;;;;18.00;99.90;;;;;;5074656;28;19995;-76
2022/10/04 09:28:53;;;;;;;;;;;17.40;99.90;;;;;;5074144;28;19931;-77
2022/10/04 09:31:28;;;;;;;;;;;17.20;99.90;;;;;;5044874;28;19913;-80
2022/10/04 09:34:20;;;;;;;;;;;17.10;99.90;;;;;;5073916;28;19918;-78
2022/10/04 09:36:48;;;;;;;;;;;16.80;99.90;;;;;;5073991;28;19909;-77
2022/10/04 09:39:16;;;;;;;;;;;16.80;99.90;;;;;;5073722;28;19969;-77
2022/10/04 09:41:51;;;;;;;;;;;17.00;99.90;;;;;;5073804;28;19912;-78
2022/10/04 09:44:45;;;;;;;;;;;16.70;99.90;;;;;;5073878;28;19908;-77
2022/10/04 09:47:30;;;;;;;;;;;16.80;99.90;;;;;;5071027;28;19909;-78
2022/10/04 09:50:16;;;;;;;;;;;17.20;99.90;;;;;;5073388;28;19963;-76
2022/10/04 09:53:05;;;;;;;;;;;17.10;99.90;;;;;;5073565;28;19939;-80
2022/10/04 09:55:49;;;;;;;;;;;17.30;99.90;;;;;;5073420;28;19995;-78
2022/10/04 09:58:18;;;;;;;;;;;17.50;99.90;;;;;;5073421;28;19915;-76
2022/10/04 10:01:04;;;;;;;;;;;17.90;99.90;;;;;;5073053;28;20047;-78
2022/10/04 10:03:48;;;;;;;;;;;18.30;99.90;;;;;;5073597;28;20318;-78
2022/10/04 10:06:25;;;;;;;;;;;18.30;99.90;;;;;;5073629;28;19916;-79
2022/10/04 10:09:09;;;;;;;;;;;18.00;99.90;;;;;;5073465;28;19909;-77
2022/10/04 10:14:41;;;;;;;;;;;18.10;99.90;;;;;;5073103;28;19985;-77
2022/10/04 10:17:27;;;;;;;;;;;17.90;99.90;;;;;;5073375;28;19909;-80
2022/10/04 10:20:16;;;;;;;;;;;17.80;99.90;;;;;;5073016;28;19916;-76
2022/10/04 10:23:00;;;;;;;;;;;18.00;99.90;;;;;;5073087;28;19912;-78
2022/10/04 10:25:57;;;;;;;;;;;18.20;99.90;;;;;;5073855;28;19909;-79
2022/10/04 10:28:24;;;;;;;;;;;18.50;99.90;;;;;;5060745;28;19940;-76
2022/10/04 10:30:55;;;;;;;;;;;18.50;99.90;;;;;;5072630;28;19926;-79
2022/10/04 10:33:39;;;;;;;;;;;18.60;99.90;;;;;;5071880;28;20315;-78
2022/10/04 10:36:05;;;;;;;;;;;18.90;99.90;;;;;;5073151;28;19909;-77
2022/10/04 10:38:39;;;;;;;;;;;18.80;99.90;;;;;;5073172;28;20377;-78
2022/10/04 10:41:21;;;;;;;;;;;18.70;99.90;;;;;;5072637;28;19909;-76
2022/10/04 10:44:06;;;;;;;;;;;18.60;99.90;;;;;;5073094;28;19913;-79
2022/10/04 10:46:34;;;;;;;;;;;18.70;99.90;;;;;;5072981;28;19912;-77
2022/10/04 10:49:09;;;;;;;;;;;19.00;99.90;;;;;;5072807;28;20289;-79
2022/10/04 10:52:00;;;;;;;;;;;18.80;99.90;;;;;;5071176;28;19920;-79
2022/10/04 10:54:29;;;;;;;;;;;18.70;99.90;;;;;;5071493;28;19912;-77
2022/10/04 10:57:17;;;;;;;;;;;18.70;99.90;;;;;;5072876;28;19954;-77
2022/10/04 11:00:06;;;;;;;;;;;18.50;99.90;;;;;;5064263;28;19908;-78
2022/10/04 11:02:51;;;;;;;;;;;18.40;99.90;;;;;;5064769;28;19913;-77
2022/10/04 11:05:17;;;;;;;;;;;18.80;99.90;;;;;;5071651;28;20303;-79
2022/10/04 11:07:50;;;;;;;;;;;18.50;99.90;;;;;;5073057;28;19908;-77
2022/10/04 11:10:34;;;;;;;;;;;18.40;99.90;;;;;;5076346;28;19954;-75
2022/10/04 11:13:08;;;;;;;;;;;18.30;99.90;;;;;;5076626;28;19991;-79
2022/10/04 11:15:53;;;;;;;;;;;18.20;99.90;;;;;;5076785;28;19909;-79
2022/10/04 11:18:21;;;;;;;;;;;18.20;99.90;;;;;;5076644;28;19909;-77
2022/10/04 11:20:59;;;;;;;;;;;18.30;99.90;;;;;;5076141;28;19963;-78
2022/10/04 11:23:43;;;;;;;;;;;18.40;99.90;;;;;;5076257;28;19909;-78
2022/10/04 11:26:27;;;;;;;;;;;18.20;99.90;;;;;;5076947;28;19909;-78
2022/10/04 11:29:11;;;;;;;;;;;18.50;99.90;;;;;;5076395;28;20331;-79
2022/10/04 11:31:42;;;;;;;;;;;18.70;99.90;;;;;;5075853;28;19920;-79
2022/10/04 11:34:21;;;;;;;;;;;19.00;99.90;;;;;;5076203;28;19916;-77
2022/10/04 11:37:00;;;;;;;;;;;19.40;99.90;;;;;;5076401;28;20007;-79
2022/10/04 11:39:52;;;;;;;;;;;19.80;99.90;;;;;;5076269;28;20003;-77
2022/10/04 11:42:25;;;;;;;;;;;19.90;99.90;;;;;;5076194;28;20018;-78
2022/10/04 11:45:09;;;;;;;;;;;20.20;99.90;;;;;;5076108;28;19958;-80
2022/10/04 11:47:39;;;;;;;;;;;20.10;99.90;;;;;;5075806;28;19916;-78
2022/10/04 11:50:23;;;;;;;;;;;19.80;99.90;;;;;;5075704;28;19908;-77
2022/10/04 11:53:02;;;;;;;;;;;19.50;99.90;;;;;;5076000;28;19912;-78
2022/10/04 11:55:31;;;;;;;;;;;19.30;99.90;;;;;;5075935;28;20049;-79
2022/10/04 11:58:00;;;;;;;;;;;19.50;99.90;;;;;;5075812;28;20007;-76
2022/10/04 12:00:40;;;;;;;;;;;19.50;99.90;;;;;;5075509;28;19909;-75
2022/10/04 12:03:35;;;;;;;;;;;19.20;99.90;;;;;;5075778;28;19951;-76
2022/10/04 12:06:16;;;;;;;;;;;19.00;99.90;;;;;;5074194;28;19908;-76
2022/10/04 12:08:47;;;;;;;;;;;19.00;99.90;;;;;;5076154;28;19947;-77
2022/10/04 12:11:16;;;;;;;;;;;18.90;99.90;;;;;;5075609;28;19912;-77
2022/10/04 12:14:00;;;;;;;;;;;18.90;99.90;;;;;;5076124;28;20355;-77
2022/10/04 12:16:28;;;;;;;;;;;18.80;99.90;;;;;;5076320;28;19908;-76
2022/10/04 12:18:59;;;;;;;;;;;18.80;99.90;;;;;;5075996;28;19916;-79
2022/10/04 12:21:40;;;;;;;;;;;18.90;99.90;;;;;;5075557;28;19908;-77
2022/10/04 12:24:09;;;;;;;;;;;18.80;99.90;;;;;;5076011;28;19908;-79
2022/10/04 12:26:44;;;;;;;;;;;18.40;99.90;;;;;;5076191;28;19988;-77
2022/10/04 12:29:23;;;;;;;;;;;18.30;99.90;;;;;;5075812;28;20003;-77
2022/10/04 12:32:07;;;;;;;;;;;18.30;99.90;;;;;;5075477;28;19950;-77
2022/10/04 12:34:40;;;;;;;;;;;18.10;99.90;;;;;;5075727;28;19916;-77
2022/10/04 12:37:18;;;;;;;;;;;17.80;99.90;;;;;;5075559;28;20019;-78
2022/10/04 12:40:01;;;;;;;;;;;17.90;99.90;;;;;;5075962;28;19909;-77
2022/10/04 12:42:44;;;;;;;;;;;18.10;99.90;;;;;;5075979;28;19908;-76
2022/10/04 12:45:16;;;;;;;;;;;18.50;99.90;;;;;;5075598;28;19908;-76
2022/10/04 12:47:51;;;;;;;;;;;19.20;99.90;;;;;;5075038;28;19924;-79
2022/10/04 12:50:21;;;;;;;;;;;19.30;99.90;;;;;;5075433;28;19909;-77
2022/10/04 12:52:53;;;;;;;;;;;19.20;99.90;;;;;;5075281;28;19908;-78
2022/10/04 12:55:21;;;;;;;;;;;19.40;99.90;;;;;;5075265;28;20418;-78
2022/10/04 12:57:47;;;;;;;;;;;19.40;99.90;;;;;;5073752;28;20288;-75
2022/10/04 13:00:21;;;;;;;;;;;19.50;99.90;;;;;;5075135;28;19912;-78
2022/10/04 13:03:07;;;;;;;;;;;19.40;99.90;;;;;;5075459;28;19908;-75
2022/10/04 13:05:32;;;;;;;;;;;19.40;99.90;;;;;;5073907;28;20277;-77
2022/10/04 13:07:58;;;;;;;;;;;19.40;99.90;;;;;;5075115;28;19916;-79
2022/10/04 13:10:32;;;;;;;;;;;19.30;99.90;;;;;;5074799;28;20455;-79
2022/10/04 13:13:15;;;;;;;;;;;19.10;99.90;;;;;;5074992;28;20245;-79
2022/10/04 13:16:01;;;;;;;;;;;19.00;99.90;;;;;;5075194;28;19943;-79
2022/10/04 13:18:39;;;;;;;;;;;18.70;99.90;;;;;;5075181;28;19991;-78
2022/10/04 13:21:07;;;;;;;;;;;18.60;99.90;;;;;;5074566;28;19919;-77
2022/10/04 13:23:35;;;;;;;;;;;18.80;99.90;;;;;;5074505;28;19995;-78
2022/10/04 13:26:19;;;;;;;;;;;18.90;99.90;;;;;;5075347;28;19908;-78
2022/10/04 13:28:53;;;;;;;;;;;18.70;99.90;;;;;;5074672;28;19913;-77
2022/10/04 13:31:54;;;;;;;;;;;18.80;99.90;;;;;;5073753;28;20293;-79
2022/10/04 13:34:40;;;;;;;;;;;18.90;99.90;;;;;;5012698;28;19941;-79
2022/10/04 13:37:14;;;;;;;;;;;19.10;99.90;;;;;;5069894;28;19909;-76
2022/10/04 13:39:42;;;;;;;;;;;19.20;99.90;;;;;;5074344;28;20364;-78
2022/10/04 13:42:20;;;;;;;;;;;19.20;99.90;;;;;;5073845;28;20365;-77
2022/10/04 13:45:04;;;;;;;;;;;19.30;99.90;;;;;;5074261;28;19909;-79
2022/10/04 13:47:29;;;;;;;;;;;20.10;99.90;;;;;;5073919;28;19916;-77
2022/10/04 13:49:55;;;;;;;;;;;21.60;99.90;;;;;;5074419;28;19957;-79
2022/10/04 13:58:38;;;;;;;;;;;20.90;99.90;;;;;;5074014;28;19916;-77
2022/10/04 14:01:14;;;;;;;;;;;20.50;99.90;;;;;;5073919;28;19908;-76
2022/10/04 14:03:57;;;;;;;;;;;20.20;99.90;;;;;;5072810;28;19961;-77
2022/10/04 14:06:31;;;;;;;;;;;20.20;99.90;;;;;;5073840;28;19909;-77
2022/10/04 14:09:02;;;;;;;;;;;20.40;99.90;;;;;;5074014;28;19999;-76
2022/10/04 14:11:47;;;;;;;;;;;20.20;99.90;;;;;;5073372;28;19962;-79
2022/10/04 14:14:21;;;;;;;;;;;20.20;99.90;;;;;;5074179;28;20357;-77
2022/10/04 14:17:02;;;;;;;;;;;20.10;99.90;;;;;;5073027;28;19909;-76
2022/10/04 14:19:56;;;;;;;;;;;19.90;99.90;;;;;;5073760;28;20349;-77
2022/10/04 14:22:31;;;;;;;;;;;19.70;99.90;;;;;;5073334;28;20385;-77
2022/10/04 14:25:10;;;;;;;;;;;19.40;99.90;;;;;;5072719;28;20435;-77
2022/10/04 14:28:12;;;;;;;;;;;19.50;99.90;;;;;;5073569;28;20369;-75
2022/10/04 14:30:52;;;;;;;;;;;19.40;99.90;;;;;;5011681;28;19916;-78
2022/10/04 14:33:21;;;;;;;;;;;19.10;99.90;;;;;;5067217;28;20304;-78
2022/10/04 14:35:59;;;;;;;;;;;19.00;99.90;;;;;;5072951;28;19909;-78
2022/10/04 14:38:31;;;;;;;;;;;19.00;99.90;;;;;;5073435;28;20007;-80
2022/10/04 14:41:15;;;;;;;;;;;18.70;99.90;;;;;;5073003;28;20373;-76
2022/10/04 14:43:59;;;;;;;;;;;18.70;99.90;;;;;;5077308;28;19912;-77
2022/10/04 14:46:24;;;;;;;;;;;18.70;99.90;;;;;;5077569;28;19909;-79
2022/10/04 14:49:02;;;;;;;;;;;18.80;99.90;;;;;;5077119;28;19928;-78
2022/10/04 14:51:28;;;;;;;;;;;19.00;99.90;;;;;;5075562;28;19999;-77
2022/10/04 14:53:55;;;;;;;;;;;19.30;99.90;;;;;;5077279;28;20348;-76
2022/10/04 14:56:26;;;;;;;;;;;19.50;99.90;;;;;;5076195;28;19931;-76
2022/10/04 14:59:06;;;;;;;;;;;19.80;99.90;;;;;;5077656;28;19919;-77
2022/10/04 15:01:34;;;;;;;;;;;19.80;99.90;;;;;;5077194;28;19912;-76
2022/10/04 15:03:59;;;;;;;;;;;19.90;99.90;;;;;;5077596;28;19944;-79
2022/10/04 15:06:31;;;;;;;;;;;19.60;99.90;;;;;;5076004;28;20376;-76
2022/10/04 15:09:05;;;;;;;;;;;19.50;99.90;;;;;;5077478;28;19909;-77
2022/10/04 15:11:39;;;;;;;;;;;19.50;99.90;;;;;;5075437;28;20349;-78
2022/10/04 15:14:34;;;;;;;;;;;19.60;99.90;;;;;;5077463;28;19909;-76